sensor_id;sensor_type;location;lat;lon;timestamp;temperature;humidity
23597;DHT22;40226;50.874;4.394;2022-10-30T00:00:21;18.90;99.90
23597;DHT22;40226;50.874;4.394;2022-10-30T00:02:48;18.90;99.90
23597;DHT22;40226;50.874;4.394;2022-10-30T00:05:14;18.90;99.90
23597;DHT22;40226;50.874;4.394;2022-10-30T00:07:40;18.90;99.90
23597;DHT22;40226;50.874;4.394;2022-10-30T00:10:06;18.90;99.90
23597;DHT22;40226;50.874;4.394;2022-10-30T00:12:32;18.80;99.90
23597;DHT22;40226;50.874;4.394;2022-10-30T00:14:57;18.80;99.90
23597;DHT22;40226;50.874;4.394;2022-10-30T00:17:23;18.80;99.90
23597;DHT22;40226;50.874;4.394;2022-10-30T00:19:49;18.80;99.90
23597;DHT22;40226;50.874;4.394;2022-10-30T00:22:14;18.80;99.90
23597;DHT22;40226;50.874;4.394;2022-10-30T00:24:40;18.70;99.90
23597;DHT22;40226;50.874;4.394;2022-10-30T00:27:06;18.80;99.90
23597;DHT22;40226;50.874;4.394;2022-10-30T00:29:31;18.70;99.90
23597;DHT22;40226;50.874;4.394;2022-10-30T00:32:37;18.70;99.90
23597;DHT22;40226;50.874;4.394;2022-10-30T00:35:03;18.70;99.90
23597;DHT22;40226;50.874;4.394;2022-10-30T00:37:28;18.60;99.90
23597;DHT22;40226;50.874;4.394;2022-10-30T00:39:54;18.50;99.90
23597;DHT22;40226;50.874;4.394;2022-10-30T00:42:19;18.50;99.90
23597;DHT22;40226;50.874;4.394;2022-10-30T00:44:49;18.50;99.90
23597;DHT22;40226;50.874;4.394;2022-10-30T00:47:35;18.50;99.90
23597;DHT22;40226;50.874;4.394;2022-10-30T00:50:05;18.60;99.90
23597;DHT22;40226;50.874;4.394;2022-10-30T00:52:39;18.90;99.90
23597;DHT22;40226;50.874;4.394;2022-10-30T00:55:12;18.80;99.90
23597;DHT22;40226;50.874;4.394;2022-10-30T00:57:38;18.70;99.90
23597;DHT22;40226;50.874;4.394;2022-10-30T01:00:05;18.40;99.90
23597;DHT22;40226;50.874;4.394;2022-10-30T01:02:32;18.30;99.90
23597;DHT22;40226;50.874;4.394;2022-10-30T01:04:58;18.40;99.90
23597;DHT22;40226;50.874;4.394;2022-10-30T01:07:24;18.40;99.90
23597;DHT22;40226;50.874;4.394;2022-10-30T01:09:49;18.30;99.90
23597;DHT22;40226;50.874;4.394;2022-10-30T01:12:15;18.40;99.90
23597;DHT22;40226;50.874;4.394;2022-10-30T01:14:46;18.50;99.90
23597;DHT22;40226;50.874;4.394;2022-10-30T01:23:32;18.10;99.90
23597;DHT22;40226;50.874;4.394;2022-10-30T01:29:25;18.10;99.90
23597;DHT22;40226;50.874;4.394;2022-10-30T01:34:50;18.00;99.90
23597;DHT22;40226;50.874;4.394;2022-10-30T01:37:50;17.90;99.90
23597;DHT22;40226;50.874;4.394;2022-10-30T01:40:17;17.90;99.90
23597;DHT22;40226;50.874;4.394;2022-10-30T01:58:10;17.80;99.90
23597;DHT22;40226;50.874;4.394;2022-10-30T02:00:40;17.90;99.90
23597;DHT22;40226;50.874;4.394;2022-10-30T02:03:06;17.90;99.90
23597;DHT22;40226;50.874;4.394;2022-10-30T02:05:43;17.90;99.90
23597;DHT22;40226;50.874;4.394;2022-10-30T02:08:10;17.90;99.90
23597;DHT22;40226;50.874;4.394;2022-10-30T02:10:36;17.90;99.90
23597;DHT22;40226;50.874;4.394;2022-10-30T02:13:02;18.00;99.90
23597;DHT22;40226;50.874;4.394;2022-10-30T02:15:29;17.90;99.90
23597;DHT22;40226;50.874;4.394;2022-10-30T02:17:55;17.90;99.90
23597;DHT22;40226;50.874;4.394;2022-10-30T02:20:21;18.00;99.90
23597;DHT22;40226;50.874;4.394;2022-10-30T02:22:47;17.90;99.90
23597;DHT22;40226;50.874;4.394;2022-10-30T02:25:13;17.90;99.90
23597;DHT22;40226;50.874;4.394;2022-10-30T02:27:39;17.80;99.90
23597;DHT22;40226;50.874;4.394;2022-10-30T02:30:05;17.80;99.90
23597;DHT22;40226;50.874;4.394;2022-10-30T02:32:31;17.70;99.90
23597;DHT22;40226;50.874;4.394;2022-10-30T02:34:57;17.70;99.90
23597;DHT22;40226;50.874;4.394;2022-10-30T02:37:22;17.80;99.90
23597;DHT22;40226;50.874;4.394;2022-10-30T02:39:49;17.80;99.90
23597;DHT22;40226;50.874;4.394;2022-10-30T02:42:15;17.70;99.90
23597;DHT22;40226;50.874;4.394;2022-10-30T02:44:40;17.70;99.90
23597;DHT22;40226;50.874;4.394;2022-10-30T02:47:06;17.70;99.90
23597;DHT22;40226;50.874;4.394;2022-10-30T02:49:31;17.70;99.90
23597;DHT22;40226;50.874;4.394;2022-10-30T02:51:57;17.70;99.90
23597;DHT22;40226;50.874;4.394;2022-10-30T02:54:23;17.80;99.90
23597;DHT22;40226;50.874;4.394;2022-10-30T02:56:48;17.70;99.90
23597;DHT22;40226;50.874;4.394;2022-10-30T02:59:14;17.70;99.90
23597;DHT22;40226;50.874;4.394;2022-10-30T03:01:40;17.70;99.90
23597;DHT22;40226;50.874;4.394;2022-10-30T03:04:05;17.80;99.90
23597;DHT22;40226;50.874;4.394;2022-10-30T03:06:31;17.60;99.90
23597;DHT22;40226;50.874;4.394;2022-10-30T03:08:57;17.70;99.90
23597;DHT22;40226;50.874;4.394;2022-10-30T03:11:22;18.10;99.90
23597;DHT22;40226;50.874;4.394;2022-10-30T03:13:48;18.20;99.90
23597;DHT22;40226;50.874;4.394;2022-10-30T03:16:17;18.00;99.90
23597;DHT22;40226;50.874;4.394;2022-10-30T03:18:43;17.90;99.90
23597;DHT22;40226;50.874;4.394;2022-10-30T03:21:11;18.10;99.90
23597;DHT22;40226;50.874;4.394;2022-10-30T03:23:37;18.00;99.90
23597;DHT22;40226;50.874;4.394;2022-10-30T03:26:03;18.00;99.90
23597;DHT22;40226;50.874;4.394;2022-10-30T03:28:30;18.20;99.90
23597;DHT22;40226;50.874;4.394;2022-10-30T03:31:04;18.30;99.90
23597;DHT22;40226;50.874;4.394;2022-10-30T03:33:31;18.30;99.90
23597;DHT22;40226;50.874;4.394;2022-10-30T03:35:57;18.40;99.90
23597;DHT22;40226;50.874;4.394;2022-10-30T03:38:23;18.30;99.90
23597;DHT22;40226;50.874;4.394;2022-10-30T03:40:49;18.30;99.90
23597;DHT22;40226;50.874;4.394;2022-10-30T03:43:15;18.30;99.90
23597;DHT22;40226;50.874;4.394;2022-10-30T03:45:48;18.40;99.90
23597;DHT22;40226;50.874;4.394;2022-10-30T03:48:15;18.50;99.90
23597;DHT22;40226;50.874;4.394;2022-10-30T03:50:41;18.40;99.90
23597;DHT22;40226;50.874;4.394;2022-10-30T03:53:07;18.50;99.90
23597;DHT22;40226;50.874;4.394;2022-10-30T03:55:32;18.30;99.90
23597;DHT22;40226;50.874;4.394;2022-10-30T03:57:58;18.20;99.90
23597;DHT22;40226;50.874;4.394;2022-10-30T04:00:23;18.20;99.90
23597;DHT22;40226;50.874;4.394;2022-10-30T04:02:50;18.20;99.90
23597;DHT22;40226;50.874;4.394;2022-10-30T04:05:18;18.20;99.90
23597;DHT22;40226;50.874;4.394;2022-10-30T04:07:44;18.20;99.90
23597;DHT22;40226;50.874;4.394;2022-10-30T04:10:11;18.10;99.90
23597;DHT22;40226;50.874;4.394;2022-10-30T04:12:37;18.00;99.90
23597;DHT22;40226;50.874;4.394;2022-10-30T04:15:03;17.90;99.90
23597;DHT22;40226;50.874;4.394;2022-10-30T04:17:29;17.80;99.90
23597;DHT22;40226;50.874;4.394;2022-10-30T04:19:55;17.70;99.90
23597;DHT22;40226;50.874;4.394;2022-10-30T04:22:20;17.60;99.90
23597;DHT22;40226;50.874;4.394;2022-10-30T04:24:46;17.50;99.90
23597;DHT22;40226;50.874;4.394;2022-10-30T04:27:14;17.60;99.90
23597;DHT22;40226;50.874;4.394;2022-10-30T04:29:39;17.60;99.90
23597;DHT22;40226;50.874;4.394;2022-10-30T04:32:07;17.50;99.90
23597;DHT22;40226;50.874;4.394;2022-10-30T04:34:32;17.50;99.90
23597;DHT22;40226;50.874;4.394;2022-10-30T04:36:58;17.50;99.90
23597;DHT22;40226;50.874;4.394;2022-10-30T04:39:24;17.40;99.90
23597;DHT22;40226;50.874;4.394;2022-10-30T04:41:49;17.30;99.90
23597;DHT22;40226;50.874;4.394;2022-10-30T04:44:15;17.20;99.90
23597;DHT22;40226;50.874;4.394;2022-10-30T04:46:40;17.10;99.90
23597;DHT22;40226;50.874;4.394;2022-10-30T04:49:06;17.10;99.90
23597;DHT22;40226;50.874;4.394;2022-10-30T04:51:32;17.10;99.90
23597;DHT22;40226;50.874;4.394;2022-10-30T04:53:57;17.10;99.90
23597;DHT22;40226;50.874;4.394;2022-10-30T04:56:23;17.00;99.90
23597;DHT22;40226;50.874;4.394;2022-10-30T04:58:49;16.90;99.90
23597;DHT22;40226;50.874;4.394;2022-10-30T05:01:14;17.00;99.90
23597;DHT22;40226;50.874;4.394;2022-10-30T05:03:40;17.00;99.90
23597;DHT22;40226;50.874;4.394;2022-10-30T05:06:14;17.10;99.90
23597;DHT22;40226;50.874;4.394;2022-10-30T05:08:41;17.00;99.90
23597;DHT22;40226;50.874;4.394;2022-10-30T05:11:07;17.10;99.90
23597;DHT22;40226;50.874;4.394;2022-10-30T05:13:32;17.20;99.90
23597;DHT22;40226;50.874;4.394;2022-10-30T05:15:58;17.30;99.90
23597;DHT22;40226;50.874;4.394;2022-10-30T05:18:23;17.30;99.90
23597;DHT22;40226;50.874;4.394;2022-10-30T05:20:49;17.30;99.90
23597;DHT22;40226;50.874;4.394;2022-10-30T05:23:14;17.40;99.90
23597;DHT22;40226;50.874;4.394;2022-10-30T05:25:40;17.10;99.90
23597;DHT22;40226;50.874;4.394;2022-10-30T05:28:06;16.90;99.90
23597;DHT22;40226;50.874;4.394;2022-10-30T05:30:33;16.60;99.90
23597;DHT22;40226;50.874;4.394;2022-10-30T05:33:10;16.60;99.90
23597;DHT22;40226;50.874;4.394;2022-10-30T05:35:36;16.80;99.90
23597;DHT22;40226;50.874;4.394;2022-10-30T05:38:03;16.80;99.90
23597;DHT22;40226;50.874;4.394;2022-10-30T05:40:30;16.90;99.90
23597;DHT22;40226;50.874;4.394;2022-10-30T05:42:56;16.90;99.90
23597;DHT22;40226;50.874;4.394;2022-10-30T05:45:21;16.90;99.90
23597;DHT22;40226;50.874;4.394;2022-10-30T05:47:58;17.10;99.90
23597;DHT22;40226;50.874;4.394;2022-10-30T05:50:25;17.30;99.90
23597;DHT22;40226;50.874;4.394;2022-10-30T05:53:09;17.20;99.90
23597;DHT22;40226;50.874;4.394;2022-10-30T05:55:35;16.90;99.90
23597;DHT22;40226;50.874;4.394;2022-10-30T05:58:03;16.70;99.90
23597;DHT22;40226;50.874;4.394;2022-10-30T06:00:30;16.70;99.90
23597;DHT22;40226;50.874;4.394;2022-10-30T06:03:01;16.70;99.90
23597;DHT22;40226;50.874;4.394;2022-10-30T06:05:29;16.80;99.90
23597;DHT22;40226;50.874;4.394;2022-10-30T06:07:55;17.10;99.90
23597;DHT22;40226;50.874;4.394;2022-10-30T06:10:22;17.20;99.90
23597;DHT22;40226;50.874;4.394;2022-10-30T06:12:55;17.00;99.90
23597;DHT22;40226;50.874;4.394;2022-10-30T06:15:22;16.80;99.90
23597;DHT22;40226;50.874;4.394;2022-10-30T06:17:47;16.90;99.90
23597;DHT22;40226;50.874;4.394;2022-10-30T06:20:14;16.90;99.90
23597;DHT22;40226;50.874;4.394;2022-10-30T06:22:40;16.80;99.90
23597;DHT22;40226;50.874;4.394;2022-10-30T06:25:06;16.70;99.90
23597;DHT22;40226;50.874;4.394;2022-10-30T06:27:35;16.50;99.90
23597;DHT22;40226;50.874;4.394;2022-10-30T06:30:01;16.60;99.90
23597;DHT22;40226;50.874;4.394;2022-10-30T06:32:33;16.40;99.90
23597;DHT22;40226;50.874;4.394;2022-10-30T06:34:59;16.20;99.90
23597;DHT22;40226;50.874;4.394;2022-10-30T06:37:24;16.40;99.90
23597;DHT22;40226;50.874;4.394;2022-10-30T06:39:50;16.70;99.90
23597;DHT22;40226;50.874;4.394;2022-10-30T06:42:15;16.90;99.90
23597;DHT22;40226;50.874;4.394;2022-10-30T06:44:41;17.10;99.90
23597;DHT22;40226;50.874;4.394;2022-10-30T06:47:08;16.90;99.90
23597;DHT22;40226;50.874;4.394;2022-10-30T06:49:34;16.80;99.90
23597;DHT22;40226;50.874;4.394;2022-10-30T06:51:59;16.60;99.90
23597;DHT22;40226;50.874;4.394;2022-10-30T06:54:25;16.50;99.90
23597;DHT22;40226;50.874;4.394;2022-10-30T06:56:50;16.50;99.90
23597;DHT22;40226;50.874;4.394;2022-10-30T06:59:16;16.60;99.90
23597;DHT22;40226;50.874;4.394;2022-10-30T07:01:42;16.70;99.90
23597;DHT22;40226;50.874;4.394;2022-10-30T07:04:07;16.90;99.90
23597;DHT22;40226;50.874;4.394;2022-10-30T07:06:33;17.10;99.90
23597;DHT22;40226;50.874;4.394;2022-10-30T07:08:58;17.20;99.90
23597;DHT22;40226;50.874;4.394;2022-10-30T07:11:24;17.30;99.90
23597;DHT22;40226;50.874;4.394;2022-10-30T07:13:50;17.40;99.90
23597;DHT22;40226;50.874;4.394;2022-10-30T07:16:15;17.30;99.90
23597;DHT22;40226;50.874;4.394;2022-10-30T07:18:41;17.30;99.90
23597;DHT22;40226;50.874;4.394;2022-10-30T07:21:06;17.30;99.90
23597;DHT22;40226;50.874;4.394;2022-10-30T07:23:33;17.00;99.90
23597;DHT22;40226;50.874;4.394;2022-10-30T07:25:59;17.10;99.90
23597;DHT22;40226;50.874;4.394;2022-10-30T07:28:25;17.00;99.90
23597;DHT22;40226;50.874;4.394;2022-10-30T07:30:50;17.00;99.90
23597;DHT22;40226;50.874;4.394;2022-10-30T07:33:16;16.90;99.90
23597;DHT22;40226;50.874;4.394;2022-10-30T07:35:41;16.80;99.90
23597;DHT22;40226;50.874;4.394;2022-10-30T07:38:11;16.80;99.90
23597;DHT22;40226;50.874;4.394;2022-10-30T07:40:38;16.60;99.90
23597;DHT22;40226;50.874;4.394;2022-10-30T07:43:04;16.80;99.90
23597;DHT22;40226;50.874;4.394;2022-10-30T07:45:31;16.90;99.90
23597;DHT22;40226;50.874;4.394;2022-10-30T07:47:56;17.00;99.90
23597;DHT22;40226;50.874;4.394;2022-10-30T07:50:22;17.10;99.90
23597;DHT22;40226;50.874;4.394;2022-10-30T07:52:48;17.30;99.90
23597;DHT22;40226;50.874;4.394;2022-10-30T07:55:14;17.30;99.90
23597;DHT22;40226;50.874;4.394;2022-10-30T07:57:42;17.50;99.90
23597;DHT22;40226;50.874;4.394;2022-10-30T08:00:11;17.50;99.90
23597;DHT22;40226;50.874;4.394;2022-10-30T08:02:40;17.40;99.90
23597;DHT22;40226;50.874;4.394;2022-10-30T08:05:06;17.60;99.90
23597;DHT22;40226;50.874;4.394;2022-10-30T08:07:52;17.70;99.90
23597;DHT22;40226;50.874;4.394;2022-10-30T08:10:59;17.90;99.90
23597;DHT22;40226;50.874;4.394;2022-10-30T08:14:10;18.00;99.90
23597;DHT22;40226;50.874;4.394;2022-10-30T08:17:16;18.20;99.90
23597;DHT22;40226;50.874;4.394;2022-10-30T08:20:23;18.20;99.90
23597;DHT22;40226;50.874;4.394;2022-10-30T08:23:48;18.30;99.90
23597;DHT22;40226;50.874;4.394;2022-10-30T08:27:02;18.20;99.90
23597;DHT22;40226;50.874;4.394;2022-10-30T08:29:47;18.20;99.90
23597;DHT22;40226;50.874;4.394;2022-10-30T08:32:33;18.50;99.90
23597;DHT22;40226;50.874;4.394;2022-10-30T08:35:47;18.50;99.90
23597;DHT22;40226;50.874;4.394;2022-10-30T08:38:13;18.50;99.90
23597;DHT22;40226;50.874;4.394;2022-10-30T08:40:38;18.50;99.90
23597;DHT22;40226;50.874;4.394;2022-10-30T08:43:04;18.70;99.90
23597;DHT22;40226;50.874;4.394;2022-10-30T08:45:29;18.80;99.90
23597;DHT22;40226;50.874;4.394;2022-10-30T08:47:57;18.90;99.90
23597;DHT22;40226;50.874;4.394;2022-10-30T08:50:23;19.00;99.90
23597;DHT22;40226;50.874;4.394;2022-10-30T08:52:49;18.90;99.90
23597;DHT22;40226;50.874;4.394;2022-10-30T08:55:14;18.90;99.90
23597;DHT22;40226;50.874;4.394;2022-10-30T08:57:56;18.40;99.90
23597;DHT22;40226;50.874;4.394;2022-10-30T09:00:22;18.40;99.90
23597;DHT22;40226;50.874;4.394;2022-10-30T09:02:47;18.30;99.90
23597;DHT22;40226;50.874;4.394;2022-10-30T09:05:15;18.40;99.90
23597;DHT22;40226;50.874;4.394;2022-10-30T09:08:00;18.40;99.90
23597;DHT22;40226;50.874;4.394;2022-10-30T09:10:26;18.30;99.90
23597;DHT22;40226;50.874;4.394;2022-10-30T09:12:56;18.20;99.90
23597;DHT22;40226;50.874;4.394;2022-10-30T09:15:22;18.00;99.90
23597;DHT22;40226;50.874;4.394;2022-10-30T09:17:55;18.10;99.90
23597;DHT22;40226;50.874;4.394;2022-10-30T09:20:37;18.30;99.90
23597;DHT22;40226;50.874;4.394;2022-10-30T09:23:05;18.50;99.90
23597;DHT22;40226;50.874;4.394;2022-10-30T09:25:51;18.50;99.90
23597;DHT22;40226;50.874;4.394;2022-10-30T09:29:05;18.60;99.90
23597;DHT22;40226;50.874;4.394;2022-10-30T09:31:51;18.70;99.90
23597;DHT22;40226;50.874;4.394;2022-10-30T09:34:22;19.00;99.90
23597;DHT22;40226;50.874;4.394;2022-10-30T09:37:08;18.80;99.90
23597;DHT22;40226;50.874;4.394;2022-10-30T09:39:35;18.80;99.90
23597;DHT22;40226;50.874;4.394;2022-10-30T09:42:43;19.00;99.90
23597;DHT22;40226;50.874;4.394;2022-10-30T09:57:11;19.60;99.90
23597;DHT22;40226;50.874;4.394;2022-10-30T10:00:37;19.50;99.90
23597;DHT22;40226;50.874;4.394;2022-10-30T10:06:27;20.20;99.90
23597;DHT22;40226;50.874;4.394;2022-10-30T10:09:08;20.40;99.90
23597;DHT22;40226;50.874;4.394;2022-10-30T10:12:22;20.30;99.90
23597;DHT22;40226;50.874;4.394;2022-10-30T10:15:28;20.00;99.90
23597;DHT22;40226;50.874;4.394;2022-10-30T10:18:22;20.20;99.90
23597;DHT22;40226;50.874;4.394;2022-10-30T10:21:35;20.40;99.90
23597;DHT22;40226;50.874;4.394;2022-10-30T10:24:34;20.50;99.90
23597;DHT22;40226;50.874;4.394;2022-10-30T10:29:44;20.50;99.90
23597;DHT22;40226;50.874;4.394;2022-10-30T10:35:22;20.60;99.90
23597;DHT22;40226;50.874;4.394;2022-10-30T10:50:02;20.60;99.90
23597;DHT22;40226;50.874;4.394;2022-10-30T10:55:37;20.50;99.90
23597;DHT22;40226;50.874;4.394;2022-10-30T10:58:38;20.90;99.90
23597;DHT22;40226;50.874;4.394;2022-10-30T11:01:17;21.10;99.90
23597;DHT22;40226;50.874;4.394;2022-10-30T11:04:04;21.20;99.90
23597;DHT22;40226;50.874;4.394;2022-10-30T11:06:38;21.10;99.90
23597;DHT22;40226;50.874;4.394;2022-10-30T11:09:34;21.40;99.90
23597;DHT22;40226;50.874;4.394;2022-10-30T11:12:39;21.70;99.90
23597;DHT22;40226;50.874;4.394;2022-10-30T11:17:58;21.60;99.90
23597;DHT22;40226;50.874;4.394;2022-10-30T11:20:43;21.60;99.90
23597;DHT22;40226;50.874;4.394;2022-10-30T11:26:08;21.20;99.90
23597;DHT22;40226;50.874;4.394;2022-10-30T11:33:58;21.10;99.90
23597;DHT22;40226;50.874;4.394;2022-10-30T11:36:36;21.30;99.90
23597;DHT22;40226;50.874;4.394;2022-10-30T11:39:17;21.60;99.90
23597;DHT22;40226;50.874;4.394;2022-10-30T11:44:18;22.10;99.90
23597;DHT22;40226;50.874;4.394;2022-10-30T11:46:53;21.70;99.90
23597;DHT22;40226;50.874;4.394;2022-10-30T11:49:24;21.40;99.90
23597;DHT22;40226;50.874;4.394;2022-10-30T11:51:52;21.10;99.90
23597;DHT22;40226;50.874;4.394;2022-10-30T11:54:39;21.30;99.90
23597;DHT22;40226;50.874;4.394;2022-10-30T11:58:04;21.50;99.90
23597;DHT22;40226;50.874;4.394;2022-10-30T12:01:21;21.00;99.90
23597;DHT22;40226;50.874;4.394;2022-10-30T12:04:33;21.50;99.90
23597;DHT22;40226;50.874;4.394;2022-10-30T12:10:11;21.00;99.90
23597;DHT22;40226;50.874;4.394;2022-10-30T12:12:49;20.40;99.90
23597;DHT22;40226;50.874;4.394;2022-10-30T12:18:03;20.40;99.90
23597;DHT22;40226;50.874;4.394;2022-10-30T12:20:29;20.50;99.90
23597;DHT22;40226;50.874;4.394;2022-10-30T12:22:56;20.60;99.90
23597;DHT22;40226;50.874;4.394;2022-10-30T12:25:23;20.70;99.90
23597;DHT22;40226;50.874;4.394;2022-10-30T12:28:11;20.50;99.90
23597;DHT22;40226;50.874;4.394;2022-10-30T12:31:04;20.70;99.90
23597;DHT22;40226;50.874;4.394;2022-10-30T12:36:32;21.10;99.90
23597;DHT22;40226;50.874;4.394;2022-10-30T12:39:07;21.20;99.90
23597;DHT22;40226;50.874;4.394;2022-10-30T12:41:49;21.10;99.90
23597;DHT22;40226;50.874;4.394;2022-10-30T12:44:23;21.10;99.90
23597;DHT22;40226;50.874;4.394;2022-10-30T12:47:03;20.90;99.90
23597;DHT22;40226;50.874;4.394;2022-10-30T12:49:49;21.00;99.90
23597;DHT22;40226;50.874;4.394;2022-10-30T12:52:20;21.30;99.90
23597;DHT22;40226;50.874;4.394;2022-10-30T12:55:36;21.80;99.90
23597;DHT22;40226;50.874;4.394;2022-10-30T12:58:22;22.20;99.90
23597;DHT22;40226;50.874;4.394;2022-10-30T13:01:10;22.70;99.90
23597;DHT22;40226;50.874;4.394;2022-10-30T13:06:40;24.00;99.90
23597;DHT22;40226;50.874;4.394;2022-10-30T13:09:17;24.40;99.90
23597;DHT22;40226;50.874;4.394;2022-10-30T13:11:55;25.00;99.90
23597;DHT22;40226;50.874;4.394;2022-10-30T13:14:35;24.70;99.90
23597;DHT22;40226;50.874;4.394;2022-10-30T13:17:02;24.50;99.90
23597;DHT22;40226;50.874;4.394;2022-10-30T13:19:28;25.10;99.90
23597;DHT22;40226;50.874;4.394;2022-10-30T13:22:05;25.10;99.90
23597;DHT22;40226;50.874;4.394;2022-10-30T13:24:59;24.90;99.90
23597;DHT22;40226;50.874;4.394;2022-10-30T13:30:19;24.80;99.90
23597;DHT22;40226;50.874;4.394;2022-10-30T13:33:07;25.00;99.90
23597;DHT22;40226;50.874;4.394;2022-10-30T13:38:36;25.10;99.90
23597;DHT22;40226;50.874;4.394;2022-10-30T13:44:07;24.80;99.90
23597;DHT22;40226;50.874;4.394;2022-10-30T13:52:04;26.40;99.90
23597;DHT22;40226;50.874;4.394;2022-10-30T13:54:39;25.00;99.90
23597;DHT22;40226;50.874;4.394;2022-10-30T13:57:47;23.80;99.90
23597;DHT22;40226;50.874;4.394;2022-10-30T14:06:14;22.40;99.90
23597;DHT22;40226;50.874;4.394;2022-10-30T14:09:11;22.10;99.90
23597;DHT22;40226;50.874;4.394;2022-10-30T14:11:52;21.50;99.90
23597;DHT22;40226;50.874;4.394;2022-10-30T14:14:30;21.10;99.90
23597;DHT22;40226;50.874;4.394;2022-10-30T14:17:12;20.90;99.90
23597;DHT22;40226;50.874;4.394;2022-10-30T14:22:40;21.10;99.90
23597;DHT22;40226;50.874;4.394;2022-10-30T14:25:13;21.00;99.90
23597;DHT22;40226;50.874;4.394;2022-10-30T14:27:39;21.00;99.90
23597;DHT22;40226;50.874;4.394;2022-10-30T14:30:17;21.00;99.90
23597;DHT22;40226;50.874;4.394;2022-10-30T14:32:50;21.00;99.90
23597;DHT22;40226;50.874;4.394;2022-10-30T14:35:46;20.90;99.90
23597;DHT22;40226;50.874;4.394;2022-10-30T14:38:33;20.70;99.90
23597;DHT22;40226;50.874;4.394;2022-10-30T14:41:24;20.60;99.90
23597;DHT22;40226;50.874;4.394;2022-10-30T14:49:49;20.80;99.90
23597;DHT22;40226;50.874;4.394;2022-10-30T14:52:22;20.90;99.90
23597;DHT22;40226;50.874;4.394;2022-10-30T14:55:19;20.70;99.90
23597;DHT22;40226;50.874;4.394;2022-10-30T14:58:06;20.70;99.90
23597;DHT22;40226;50.874;4.394;2022-10-30T15:05:56;20.20;99.90
23597;DHT22;40226;50.874;4.394;2022-10-30T15:11:36;20.10;99.90
23597;DHT22;40226;50.874;4.394;2022-10-30T15:14:11;19.70;99.90
23597;DHT22;40226;50.874;4.394;2022-10-30T15:16:39;19.70;99.90
23597;DHT22;40226;50.874;4.394;2022-10-30T15:19:08;19.80;99.90
23597;DHT22;40226;50.874;4.394;2022-10-30T15:21:50;19.80;99.90
23597;DHT22;40226;50.874;4.394;2022-10-30T15:24:19;19.60;99.90
23597;DHT22;40226;50.874;4.394;2022-10-30T15:26:50;19.60;99.90
23597;DHT22;40226;50.874;4.394;2022-10-30T15:29:37;19.50;99.90
23597;DHT22;40226;50.874;4.394;2022-10-30T15:32:51;19.40;99.90
23597;DHT22;40226;50.874;4.394;2022-10-30T15:35:27;19.20;99.90
23597;DHT22;40226;50.874;4.394;2022-10-30T15:40:26;19.10;99.90
23597;DHT22;40226;50.874;4.394;2022-10-30T15:42:52;19.20;99.90
23597;DHT22;40226;50.874;4.394;2022-10-30T15:46:06;19.20;99.90
23597;DHT22;40226;50.874;4.394;2022-10-30T15:48:33;19.10;99.90
23597;DHT22;40226;50.874;4.394;2022-10-30T15:54:01;19.30;99.90
23597;DHT22;40226;50.874;4.394;2022-10-30T15:59:04;19.50;99.90
23597;DHT22;40226;50.874;4.394;2022-10-30T16:01:44;19.10;99.90
23597;DHT22;40226;50.874;4.394;2022-10-30T16:04:17;19.10;99.90
23597;DHT22;40226;50.874;4.394;2022-10-30T16:07:19;19.20;99.90
23597;DHT22;40226;50.874;4.394;2022-10-30T16:10:02;19.10;99.90
23597;DHT22;40226;50.874;4.394;2022-10-30T16:12:32;19.00;99.90
23597;DHT22;40226;50.874;4.394;2022-10-30T16:15:42;19.30;99.90
23597;DHT22;40226;50.874;4.394;2022-10-30T16:18:30;19.00;99.90
23597;DHT22;40226;50.874;4.394;2022-10-30T16:21:06;19.10;99.90
23597;DHT22;40226;50.874;4.394;2022-10-30T16:23:41;19.30;99.90
23597;DHT22;40226;50.874;4.394;2022-10-30T16:26:24;19.30;99.90
23597;DHT22;40226;50.874;4.394;2022-10-30T16:28:50;18.90;99.90
23597;DHT22;40226;50.874;4.394;2022-10-30T16:31:16;18.80;99.90
23597;DHT22;40226;50.874;4.394;2022-10-30T16:33:46;18.60;99.90
23597;DHT22;40226;50.874;4.394;2022-10-30T16:36:16;18.60;99.90
23597;DHT22;40226;50.874;4.394;2022-10-30T16:38:51;18.60;99.90
23597;DHT22;40226;50.874;4.394;2022-10-30T16:41:25;18.50;99.90
23597;DHT22;40226;50.874;4.394;2022-10-30T16:44:25;18.50;99.90
23597;DHT22;40226;50.874;4.394;2022-10-30T16:49:51;18.50;99.90
23597;DHT22;40226;50.874;4.394;2022-10-30T16:52:25;18.70;99.90
23597;DHT22;40226;50.874;4.394;2022-10-30T16:55:01;18.70;99.90
23597;DHT22;40226;50.874;4.394;2022-10-30T16:57:31;18.80;99.90
23597;DHT22;40226;50.874;4.394;2022-10-30T16:59:59;18.70;99.90
23597;DHT22;40226;50.874;4.394;2022-10-30T17:02:28;18.60;99.90
23597;DHT22;40226;50.874;4.394;2022-10-30T17:05:02;18.40;99.90
23597;DHT22;40226;50.874;4.394;2022-10-30T17:07:32;18.30;99.90
23597;DHT22;40226;50.874;4.394;2022-10-30T17:09:58;18.20;99.90
23597;DHT22;40226;50.874;4.394;2022-10-30T17:12:25;18.20;99.90
23597;DHT22;40226;50.874;4.394;2022-10-30T17:17:32;18.30;99.90
23597;DHT22;40226;50.874;4.394;2022-10-30T17:20:02;18.40;99.90
23597;DHT22;40226;50.874;4.394;2022-10-30T17:22:29;18.40;99.90
23597;DHT22;40226;50.874;4.394;2022-10-30T17:24:57;18.40;99.90
23597;DHT22;40226;50.874;4.394;2022-10-30T17:29:57;18.40;99.90
23597;DHT22;40226;50.874;4.394;2022-10-30T17:32:41;18.30;99.90
23597;DHT22;40226;50.874;4.394;2022-10-30T17:35:16;18.10;99.90
23597;DHT22;40226;50.874;4.394;2022-10-30T17:37:43;18.30;99.90
23597;DHT22;40226;50.874;4.394;2022-10-30T17:40:10;18.00;99.90
23597;DHT22;40226;50.874;4.394;2022-10-30T17:42:37;17.90;99.90
23597;DHT22;40226;50.874;4.394;2022-10-30T17:45:08;17.80;99.90
23597;DHT22;40226;50.874;4.394;2022-10-30T17:47:47;17.70;99.90
23597;DHT22;40226;50.874;4.394;2022-10-30T17:50:33;17.80;99.90
23597;DHT22;40226;50.874;4.394;2022-10-30T17:52:58;17.90;99.90
23597;DHT22;40226;50.874;4.394;2022-10-30T17:55:28;17.90;99.90
23597;DHT22;40226;50.874;4.394;2022-10-30T17:57:57;18.00;99.90
23597;DHT22;40226;50.874;4.394;2022-10-30T18:00:23;17.90;99.90
23597;DHT22;40226;50.874;4.394;2022-10-30T18:02:50;17.70;99.90
23597;DHT22;40226;50.874;4.394;2022-10-30T18:05:17;17.80;99.90
23597;DHT22;40226;50.874;4.394;2022-10-30T18:07:45;17.90;99.90
23597;DHT22;40226;50.874;4.394;2022-10-30T18:10:12;18.20;99.90
23597;DHT22;40226;50.874;4.394;2022-10-30T18:12:38;18.30;99.90
23597;DHT22;40226;50.874;4.394;2022-10-30T18:17:53;18.20;99.90
23597;DHT22;40226;50.874;4.394;2022-10-30T18:20:19;18.40;99.90
23597;DHT22;40226;50.874;4.394;2022-10-30T18:22:44;18.20;99.90
23597;DHT22;40226;50.874;4.394;2022-10-30T18:25:17;18.00;99.90
23597;DHT22;40226;50.874;4.394;2022-10-30T18:27:46;18.40;99.90
23597;DHT22;40226;50.874;4.394;2022-10-30T18:30:14;18.20;99.90
23597;DHT22;40226;50.874;4.394;2022-10-30T18:32:44;18.20;99.90